Time,TemperatureF,DewpointF,PressureIn,WindDirection,WindDirectionDegrees,WindSpeedMPH,WindSpeedGustMPH,Humidity,HourlyPrecipIn,Conditions,Clouds,dailyrainin,SolarRadiationWatts/m^2,SoftwareType,DateUTC
2013-02-21 00:00:00,37.3,15.2,30.14,North,355,0.0,4.0,40,0.00,,---,0.00,0.00,VWS V14.00,2013-02-21 05:00:00,
2013-02-21 00:05:00,37.2,14.5,30.14,NNE,22,0.0,4.0,39,0.00,,---,0.00,0.00,VWS V14.00,2013-02-21 05:05:00,
2013-02-21 00:10:00,37.0,14.4,30.14,NNE,22,0.0,4.0,39,0.00,,---,0.00,0.00,VWS V14.00,2013-02-21 05:10:00,
2013-02-21 00:15:00,36.9,14.9,30.14,North,5,0.0,4.0,40,0.00,,---,0.00,0.00,VWS V14.00,2013-02-21 05:15:00,
2013-02-21 00:20:00,36.8,14.8,30.13,NNE,12,2.0,4.0,40,0.00,,---,0.00,0.00,VWS V14.00,2013-02-21 05:20:00,
2013-02-21 00:25:00,36.5,15.6,30.14,NNE,22,0.0,4.0,42,0.00,,---,0.00,0.00,VWS V14.00,2013-02-21 05:25:00,
2013-02-21 00:30:00,36.3,14.9,30.13,North,11,4.0,4.0,41,0.00,,---,0.00,0.00,VWS V14.00,2013-02-21 05:30:00,
2013-02-21 00:35:00,36.3,13.7,30.13,North,360,1.0,5.0,39,0.00,,---,0.00,0.00,VWS V14.00,2013-02-21 05:35:00,
2013-02-21 00:40:00,36.3,13.1,30.13,North,360,1.0,6.0,38,0.00,,---,0.00,0.00,VWS V14.00,2013-02-21 05:40:00,
2013-02-21 00:45:00,36.3,14.3,30.14,North,360,0.0,6.0,40,0.00,,---,0.00,0.00,VWS V14.00,2013-02-21 05:45:00,
2013-02-21 00:50:00,36.3,14.3,30.14,North,360,0.0,6.0,40,0.00,,---,0.00,0.00,VWS V14.00,2013-02-21 05:50:00,
2013-02-21 00:55:00,36.2,13.6,30.14,North,360,0.0,6.0,39,0.00,,---,0.00,0.00,VWS V14.00,2013-02-21 05:55:00,
2013-02-21 01:00:00,35.9,13.4,30.14,North,360,0.0,6.0,39,0.00,,---,0.00,0.00,VWS V14.00,2013-02-21 06:00:00,
2013-02-21 01:05:00,35.8,13.9,30.14,North,360,0.0,0.0,40,0.00,,---,0.00,0.00,VWS V14.00,2013-02-21 06:05:00,
2013-02-21 01:10:00,35.6,14.2,30.14,North,360,0.0,1.0,41,0.00,,---,0.00,0.00,VWS V14.00,2013-02-21 06:10:00,
2013-02-21 01:15:00,35.5,14.7,30.14,North,360,0.0,1.0,42,0.00,,---,0.00,0.00,VWS V14.00,2013-02-21 06:15:00,
2013-02-21 01:20:00,35.2,13.9,30.14,North,360,0.0,1.0,41,0.00,,---,0.00,0.00,VWS V14.00,2013-02-21 06:20:00,
2013-02-21 01:25:00,35.0,13.7,30.14,North,360,0.0,1.0,41,0.00,,---,0.00,0.00,VWS V14.00,2013-02-21 06:25:00,
2013-02-21 01:30:00,34.7,14.0,30.14,North,360,1.0,2.0,42,0.00,,---,0.00,0.00,VWS V14.00,2013-02-21 06:30:00,
2013-02-21 01:35:00,34.6,14.4,30.14,North,360,0.0,0.0,43,0.00,,---,0.00,0.00,VWS V14.00,2013-02-21 06:35:00,
2013-02-21 01:40:00,34.6,13.9,30.14,North,360,0.0,0.0,42,0.00,,---,0.00,0.00,VWS V14.00,2013-02-21 06:40:00,
2013-02-21 01:45:00,34.4,14.8,30.14,North,360,0.0,0.0,44,0.00,,---,0.00,0.00,VWS V14.00,2013-02-21 06:45:00,
2013-02-21 01:50:00,34.4,14.8,30.14,North,360,0.0,1.0,44,0.00,,---,0.00,0.00,VWS V14.00,2013-02-21 06:50:00,
2013-02-21 01:55:00,34.4,14.2,30.14,North,360,0.0,2.0,43,0.00,,---,0.00,0.00,VWS V14.00,2013-02-21 06:55:00,
2013-02-21 02:00:00,34.4,15.8,30.14,North,360,0.0,2.0,46,0.00,,---,0.00,0.00,VWS V14.00,2013-02-21 07:00:00,
2013-02-21 02:05:00,34.4,17.2,30.14,North,360,0.0,0.0,49,0.00,,---,0.00,0.00,VWS V14.00,2013-02-21 07:05:00,
2013-02-21 02:10:00,34.4,15.8,30.14,North,360,0.0,0.0,46,0.00,,---,0.00,0.00,VWS V14.00,2013-02-21 07:10:00,
2013-02-21 02:15:00,34.3,16.2,30.14,North,360,0.0,0.0,47,0.00,,---,0.00,0.00,VWS V14.00,2013-02-21 07:15:00,
2013-02-21 02:20:00,34.3,16.2,30.14,North,360,0.0,0.0,47,0.00,,---,0.00,0.00,VWS V14.00,2013-02-21 07:20:00,
2013-02-21 02:25:00,34.3,16.2,30.14,North,360,0.0,0.0,47,0.00,,---,0.00,0.00,VWS V14.00,2013-02-21 07:25:00,
2013-02-21 02:30:00,34.1,15.0,30.15,North,360,0.0,0.0,45,0.00,,---,0.00,0.00,VWS V14.00,2013-02-21 07:30:00,
2013-02-21 02:35:00,34.0,15.9,30.15,North,360,0.0,0.0,47,0.00,,---,0.00,0.00,VWS V14.00,2013-02-21 07:35:00,
2013-02-21 02:40:00,33.8,16.2,30.16,North,360,0.0,0.0,48,0.00,,---,0.00,0.00,VWS V14.00,2013-02-21 07:40:00,
2013-02-21 02:45:00,33.7,15.6,30.15,North,360,0.0,0.0,47,0.00,,---,0.00,0.00,VWS V14.00,2013-02-21 07:45:00,
2013-02-21 02:50:00,33.5,14.9,30.15,North,360,0.0,0.0,46,0.00,,---,0.00,0.00,VWS V14.00,2013-02-21 07:50:00,
2013-02-21 02:55:00,33.2,15.2,30.15,North,360,0.0,0.0,47,0.00,,---,0.00,0.00,VWS V14.00,2013-02-21 07:55:00,
2013-02-21 03:00:00,33.1,15.1,30.16,North,360,0.0,0.0,47,0.00,,---,0.00,0.00,VWS V14.00,2013-02-21 08:00:00,
2013-02-21 03:05:00,32.8,14.8,30.15,North,360,0.0,0.0,47,0.00,,---,0.00,0.00,VWS V14.00,2013-02-21 08:05:00,
2013-02-21 03:10:00,32.5,15.0,30.16,North,360,0.0,0.0,48,0.00,,---,0.00,0.00,VWS V14.00,2013-02-21 08:10:00,
2013-02-21 03:15:00,32.4,15.9,30.16,North,360,0.0,0.0,50,0.00,,---,0.00,0.00,VWS V14.00,2013-02-21 08:15:00,
2013-02-21 03:20:00,32.1,16.0,30.16,North,360,0.0,0.0,51,0.00,,---,0.00,0.00,VWS V14.00,2013-02-21 08:20:00,
2013-02-21 03:25:00,31.8,15.8,30.17,North,360,0.0,0.0,51,0.00,,---,0.00,0.00,VWS V14.00,2013-02-21 08:25:00,
2013-02-21 03:30:00,31.6,16.5,30.17,North,360,0.0,0.0,53,0.00,,---,0.00,0.00,VWS V14.00,2013-02-21 08:30:00,
2013-02-21 03:35:00,31.5,16.4,30.17,North,360,0.0,0.0,53,0.00,,---,0.00,0.00,VWS V14.00,2013-02-21 08:35:00,
2013-02-21 03:40:00,31.2,16.5,30.16,North,360,0.0,0.0,54,0.00,,---,0.00,0.00,VWS V14.00,2013-02-21 08:40:00,
2013-02-21 03:45:00,31.0,16.3,30.16,North,360,0.0,0.0,54,0.00,,---,0.00,0.00,VWS V14.00,2013-02-21 08:45:00,
2013-02-21 03:50:00,30.9,16.2,30.16,North,360,0.0,0.0,54,0.00,,---,0.00,0.00,VWS V14.00,2013-02-21 08:50:00,
2013-02-21 03:55:00,30.7,16.0,30.16,North,360,0.0,0.0,54,0.00,,---,0.00,0.00,VWS V14.00,2013-02-21 08:55:00,
2013-02-21 04:00:00,30.7,16.0,30.16,North,360,0.0,0.0,54,0.00,,---,0.00,0.00,VWS V14.00,2013-02-21 09:00:00,
2013-02-21 04:05:00,30.6,16.4,30.16,North,360,0.0,0.0,55,0.00,,---,0.00,0.00,VWS V14.00,2013-02-21 09:05:00,
2013-02-21 04:10:00,30.4,16.6,30.16,North,360,0.0,0.0,56,0.00,,---,0.00,0.00,VWS V14.00,2013-02-21 09:10:00,
2013-02-21 04:15:00,30.3,16.5,30.16,North,360,0.0,0.0,56,0.00,,---,0.00,0.00,VWS V14.00,2013-02-21 09:15:00,
2013-02-21 04:20:00,30.1,16.7,30.17,North,360,0.0,0.0,57,0.00,,---,0.00,0.00,VWS V14.00,2013-02-21 09:20:00,
2013-02-21 04:25:00,30.0,16.6,30.17,North,360,0.0,0.0,57,0.00,,---,0.00,0.00,VWS V14.00,2013-02-21 09:25:00,
2013-02-21 04:30:00,30.0,16.6,30.17,North,360,0.0,0.0,57,0.00,,---,0.00,0.00,VWS V14.00,2013-02-21 09:30:00,
2013-02-21 04:35:00,29.8,16.4,30.17,North,360,0.0,0.0,57,0.00,,---,0.00,0.00,VWS V14.00,2013-02-21 09:35:00,
2013-02-21 04:40:00,29.7,16.8,30.17,North,360,0.0,0.0,58,0.00,,---,0.00,0.00,VWS V14.00,2013-02-21 09:40:00,
2013-02-21 04:45:00,29.7,16.4,30.17,North,360,0.0,0.0,57,0.00,,---,0.00,0.00,VWS V14.00,2013-02-21 09:45:00,
2013-02-21 04:50:00,29.5,17.0,30.18,North,360,0.0,0.0,59,0.00,,---,0.00,0.00,VWS V14.00,2013-02-21 09:50:00,
2013-02-21 04:55:00,29.5,17.0,30.18,North,360,0.0,0.0,59,0.00,,---,0.00,0.00,VWS V14.00,2013-02-21 09:55:00,
2013-02-21 05:00:00,29.5,16.6,30.18,North,360,0.0,0.0,58,0.00,,---,0.00,0.00,VWS V14.00,2013-02-21 10:00:00,
2013-02-21 05:05:00,29.5,16.6,30.18,North,360,0.0,0.0,58,0.00,,---,0.00,0.00,VWS V14.00,2013-02-21 10:05:00,
2013-02-21 05:10:00,29.4,18.0,30.18,North,360,0.0,0.0,62,0.00,,---,0.00,0.00,VWS V14.00,2013-02-21 10:10:00,
2013-02-21 05:15:00,29.4,17.6,30.18,North,360,0.0,0.0,61,0.00,,---,0.00,0.00,VWS V14.00,2013-02-21 10:15:00,
2013-02-21 05:20:00,29.3,17.9,30.18,North,360,0.0,0.0,62,0.00,,---,0.00,0.00,VWS V14.00,2013-02-21 10:20:00,
2013-02-21 05:25:00,29.1,18.1,30.18,North,360,0.0,0.0,63,0.00,,---,0.00,0.00,VWS V14.00,2013-02-21 10:25:00,
2013-02-21 05:30:00,29.1,18.1,30.18,North,360,0.0,0.0,63,0.00,,---,0.00,0.00,VWS V14.00,2013-02-21 10:30:00,
2013-02-21 05:35:00,29.0,18.0,30.19,North,360,0.0,0.0,63,0.00,,---,0.00,0.00,VWS V14.00,2013-02-21 10:35:00,
2013-02-21 05:40:00,28.8,18.2,30.19,North,360,0.0,0.0,64,0.00,,---,0.00,0.00,VWS V14.00,2013-02-21 10:40:00,
2013-02-21 05:45:00,28.7,19.1,30.19,North,360,0.0,0.0,67,0.00,,---,0.00,0.00,VWS V14.00,2013-02-21 10:45:00,
2013-02-21 05:50:00,28.5,18.6,30.19,North,360,0.0,0.0,66,0.00,,---,0.00,0.00,VWS V14.00,2013-02-21 10:50:00,
2013-02-21 05:55:00,28.2,18.0,30.19,North,360,0.0,0.0,65,0.00,,---,0.00,0.00,VWS V14.00,2013-02-21 10:55:00,
2013-02-21 06:00:00,28.1,17.5,30.19,North,360,0.0,0.0,64,0.00,,---,0.00,0.00,VWS V14.00,2013-02-21 11:00:00,
2013-02-21 06:05:00,27.9,17.7,30.19,North,360,0.0,0.0,65,0.00,,---,0.00,0.00,VWS V14.00,2013-02-21 11:05:00,
2013-02-21 06:10:00,27.9,17.7,30.19,North,360,0.0,0.0,65,0.00,,---,0.00,0.00,VWS V14.00,2013-02-21 11:10:00,
2013-02-21 06:14:00,27.8,17.6,30.20,North,360,0.0,0.0,65,0.00,,---,0.00,0.00,VWS V14.00,2013-02-21 11:14:00,
2013-02-21 06:20:00,27.6,17.4,30.20,North,360,0.0,0.0,65,0.00,,---,0.00,0.00,VWS V14.00,2013-02-21 11:20:00,
2013-02-21 06:25:00,27.6,18.8,30.20,North,360,0.0,0.0,69,0.00,,---,0.00,0.00,VWS V14.00,2013-02-21 11:25:00,
2013-02-21 06:29:00,27.5,18.7,30.20,North,360,0.0,0.0,69,0.00,,---,0.00,0.00,VWS V14.00,2013-02-21 11:29:00,
2013-02-21 06:34:00,27.5,18.7,30.21,North,360,0.0,0.0,69,0.00,,---,0.00,0.00,VWS V14.00,2013-02-21 11:34:00,
2013-02-21 06:39:00,27.3,18.8,30.20,North,360,0.0,0.0,70,0.00,,---,0.00,0.00,VWS V14.00,2013-02-21 11:39:00,
2013-02-21 06:44:00,27.2,18.7,30.21,North,360,0.0,0.0,70,0.00,,---,0.00,0.00,VWS V14.00,2013-02-21 11:44:00,
2013-02-21 06:49:00,27.0,18.5,30.21,North,360,0.0,0.0,70,0.00,,---,0.00,0.00,VWS V14.00,2013-02-21 11:49:00,
2013-02-21 06:54:00,26.9,18.4,30.22,North,360,0.0,0.0,70,0.00,,---,0.00,0.00,VWS V14.00,2013-02-21 11:54:00,
2013-02-21 06:59:00,26.7,18.2,30.21,North,360,0.0,0.0,70,0.00,,---,0.00,5.00,VWS V14.00,2013-02-21 11:59:00,
2013-02-21 07:04:00,26.6,18.1,30.21,North,360,0.0,0.0,70,0.00,,---,0.00,7.00,VWS V14.00,2013-02-21 12:04:00,
2013-02-21 07:09:00,26.6,18.1,30.22,North,360,0.0,0.0,70,0.00,,---,0.00,9.00,VWS V14.00,2013-02-21 12:09:00,
2013-02-21 07:14:00,26.6,18.1,30.22,North,360,0.0,0.0,70,0.00,,---,0.00,11.00,VWS V14.00,2013-02-21 12:14:00,
2013-02-21 07:19:00,26.4,18.0,30.22,North,360,0.0,0.0,70,0.00,,---,0.00,12.00,VWS V14.00,2013-02-21 12:19:00,
2013-02-21 07:24:00,26.6,18.5,30.23,North,360,0.0,0.0,71,0.00,,---,0.00,14.00,VWS V14.00,2013-02-21 12:24:00,
2013-02-21 07:29:00,26.6,19.1,30.22,North,360,0.0,0.0,73,0.00,,---,0.00,16.00,VWS V14.00,2013-02-21 12:29:00,
2013-02-21 07:34:00,26.6,19.1,30.22,North,360,0.0,0.0,73,0.00,,---,0.00,18.00,VWS V14.00,2013-02-21 12:34:00,
2013-02-21 07:39:00,26.6,19.1,30.22,North,360,0.0,0.0,73,0.00,,---,0.00,19.00,VWS V14.00,2013-02-21 12:39:00,
2013-02-21 07:44:00,26.6,19.1,30.22,North,360,0.0,1.0,73,0.00,,---,0.00,21.00,VWS V14.00,2013-02-21 12:44:00,
2013-02-21 07:49:00,26.6,19.1,30.23,North,360,0.0,1.0,73,0.00,,---,0.00,28.00,VWS V14.00,2013-02-21 12:49:00,
2013-02-21 07:54:00,26.6,19.1,30.23,North,360,0.0,1.0,73,0.00,,---,0.00,28.00,VWS V14.00,2013-02-21 12:54:00,
2013-02-21 07:59:00,26.7,18.9,30.23,North,360,0.0,1.0,72,0.00,,---,0.00,42.00,VWS V14.00,2013-02-21 12:59:00,
2013-02-21 08:04:00,26.9,18.4,30.24,North,360,0.0,0.0,70,0.00,,---,0.00,35.00,VWS V14.00,2013-02-21 13:04:00,
2013-02-21 08:09:00,27.9,19.4,30.23,North,360,0.0,0.0,70,0.00,,---,0.00,62.00,VWS V14.00,2013-02-21 13:09:00,
2013-02-21 08:14:00,28.5,19.3,30.24,North,360,0.0,0.0,68,0.00,,---,0.00,74.00,VWS V14.00,2013-02-21 13:14:00,
2013-02-21 08:19:00,29.0,19.4,30.24,North,360,0.0,0.0,67,0.00,,---,0.00,121.00,VWS V14.00,2013-02-21 13:19:00,
2013-02-21 08:24:00,30.3,20.0,30.24,North,360,0.0,0.0,65,0.00,,---,0.00,134.00,VWS V14.00,2013-02-21 13:24:00,
2013-02-21 08:29:00,30.9,19.8,30.24,North,360,0.0,0.0,63,0.00,,---,0.00,167.00,VWS V14.00,2013-02-21 13:29:00,
2013-02-21 08:34:00,31.6,19.7,30.25,North,360,0.0,0.0,61,0.00,,---,0.00,44.00,VWS V14.00,2013-02-21 13:34:00,
2013-02-21 08:39:00,32.1,18.6,30.25,North,360,0.0,0.0,57,0.00,,---,0.00,72.00,VWS V14.00,2013-02-21 13:39:00,
2013-02-21 08:44:00,32.7,18.3,30.24,North,360,0.0,0.0,55,0.00,,---,0.00,42.00,VWS V14.00,2013-02-21 13:44:00,
2013-02-21 08:49:00,33.1,17.8,30.24,North,360,0.0,2.0,53,0.00,,---,0.00,33.00,VWS V14.00,2013-02-21 13:49:00,
2013-02-21 08:54:00,33.5,17.3,30.24,North,360,0.0,2.0,51,0.00,,---,0.00,44.00,VWS V14.00,2013-02-21 13:54:00,
2013-02-21 08:59:00,34.3,17.6,30.24,North,360,0.0,3.0,50,0.00,,---,0.00,69.00,VWS V14.00,2013-02-21 13:59:00,
2013-02-21 09:04:00,35.2,16.5,30.24,North,360,0.0,3.0,46,0.00,,---,0.00,44.00,VWS V14.00,2013-02-21 14:04:00,
2013-02-21 09:09:00,35.6,15.3,30.24,North,351,3.0,4.0,43,0.00,,---,0.00,84.00,VWS V14.00,2013-02-21 14:09:00,
2013-02-21 09:14:00,35.9,16.1,30.24,North,355,0.0,4.0,44,0.00,,---,0.00,292.00,VWS V14.00,2013-02-21 14:14:00,
2013-02-21 09:19:00,36.9,17.0,30.24,North,355,0.0,4.0,44,0.00,,---,0.00,420.00,VWS V14.00,2013-02-21 14:19:00,
2013-02-21 09:24:00,37.5,17.0,30.24,North,355,0.0,4.0,43,0.00,,---,0.00,436.00,VWS V14.00,2013-02-21 14:24:00,
2013-02-21 09:29:00,37.9,16.3,30.24,NE,53,0.0,5.0,41,0.00,,---,0.00,452.00,VWS V14.00,2013-02-21 14:29:00,
2013-02-21 09:34:00,38.3,17.2,30.24,NNW,345,0.0,4.0,42,0.00,,---,0.00,464.00,VWS V14.00,2013-02-21 14:34:00,
2013-02-21 09:39:00,39.1,18.0,30.23,North,5,3.0,6.0,42,0.00,,---,0.00,480.00,VWS V14.00,2013-02-21 14:39:00,
2013-02-21 09:44:00,39.5,19.9,30.24,North,5,0.0,6.0,45,0.00,,---,0.00,492.00,VWS V14.00,2013-02-21 14:44:00,
2013-02-21 09:49:00,40.5,18.1,30.23,North,360,2.0,6.0,40,0.00,,---,0.00,508.00,VWS V14.00,2013-02-21 14:49:00,
2013-02-21 09:54:00,40.1,17.1,30.23,WSW,241,0.0,6.0,39,0.00,,---,0.00,519.00,VWS V14.00,2013-02-21 14:54:00,
2013-02-21 09:59:00,41.3,22.1,30.22,WSW,241,1.0,6.0,46,0.00,,---,0.00,531.00,VWS V14.00,2013-02-21 14:59:00,
2013-02-21 10:04:00,41.6,22.4,30.22,WSW,241,0.0,1.0,46,0.00,,---,0.00,545.00,VWS V14.00,2013-02-21 15:04:00,
2013-02-21 10:09:00,41.8,16.2,30.23,North,360,0.0,4.0,35,0.00,,---,0.00,559.00,VWS V14.00,2013-02-21 15:09:00,
2013-02-21 10:14:00,41.6,16.0,30.22,North,10,0.0,4.0,35,0.00,,---,0.00,570.00,VWS V14.00,2013-02-21 15:14:00,
2013-02-21 10:19:00,42.1,19.0,30.22,NW,320,0.0,4.0,39,0.00,,---,0.00,582.00,VWS V14.00,2013-02-21 15:19:00,
2013-02-21 10:24:00,41.9,15.6,30.22,WNW,302,0.0,4.0,34,0.00,,---,0.00,591.00,VWS V14.00,2013-02-21 15:24:00,
2013-02-21 10:29:00,42.6,15.5,30.22,NNW,348,0.0,5.0,33,0.00,,---,0.00,603.00,VWS V14.00,2013-02-21 15:29:00,
2013-02-21 10:34:00,44.2,16.2,30.22,WNW,294,1.0,2.0,32,0.00,,---,0.00,613.00,VWS V14.00,2013-02-21 15:34:00,
2013-02-21 10:39:00,43.9,16.0,30.21,NW,315,0.0,4.0,32,0.00,,---,0.00,622.00,VWS V14.00,2013-02-21 15:39:00,
2013-02-21 10:44:00,44.8,18.8,30.21,North,5,0.0,4.0,35,0.00,,---,0.00,635.00,VWS V14.00,2013-02-21 15:44:00,
2013-02-21 10:49:00,44.2,15.5,30.21,NNE,14,3.0,4.0,31,0.00,,---,0.00,643.00,VWS V14.00,2013-02-21 15:49:00,
2013-02-21 10:54:00,44.9,16.8,30.21,WNW,284,0.0,4.0,32,0.00,,---,0.00,649.00,VWS V14.00,2013-02-21 15:54:00,
2013-02-21 10:59:00,44.1,16.1,30.21,West,264,1.0,5.0,32,0.00,,---,0.00,659.00,VWS V14.00,2013-02-21 15:59:00,
2013-02-21 11:04:00,45.1,14.8,30.21,West,280,0.0,3.0,29,0.00,,---,0.00,668.00,VWS V14.00,2013-02-21 16:04:00,
2013-02-21 11:09:00,44.5,17.2,30.20,SSW,202,0.0,3.0,33,0.00,,---,0.00,671.00,VWS V14.00,2013-02-21 16:09:00,
2013-02-21 11:14:00,46.0,15.5,30.20,West,269,4.0,4.0,29,0.00,,---,0.00,680.00,VWS V14.00,2013-02-21 16:14:00,
2013-02-21 11:19:00,46.2,14.9,30.20,West,267,0.0,4.0,28,0.00,,---,0.00,687.00,VWS V14.00,2013-02-21 16:19:00,
2013-02-21 11:24:00,45.7,16.1,30.21,WNW,299,0.0,4.0,30,0.00,,---,0.00,696.00,VWS V14.00,2013-02-21 16:24:00,
2013-02-21 11:29:00,46.0,16.3,30.21,WSW,248,1.0,4.0,30,0.00,,---,0.00,698.00,VWS V14.00,2013-02-21 16:29:00,
2013-02-21 11:34:00,47.6,16.1,30.20,WSW,250,2.0,4.0,28,0.00,,---,0.00,705.00,VWS V14.00,2013-02-21 16:34:00,
2013-02-21 11:39:00,47.6,16.9,30.20,West,272,0.0,4.0,29,0.00,,---,0.00,710.00,VWS V14.00,2013-02-21 16:39:00,
2013-02-21 11:44:00,47.7,16.2,30.20,NNW,345,0.0,5.0,28,0.00,,---,0.00,715.00,VWS V14.00,2013-02-21 16:44:00,
2013-02-21 11:49:00,47.9,16.4,30.20,SSW,209,0.0,6.0,28,0.00,,---,0.00,719.00,VWS V14.00,2013-02-21 16:49:00,
2013-02-21 11:54:00,47.7,16.2,30.19,SSW,210,0.0,6.0,28,0.00,,---,0.00,722.00,VWS V14.00,2013-02-21 16:54:00,
2013-02-21 11:59:00,48.8,18.0,30.18,NW,323,0.0,6.0,29,0.00,,---,0.00,726.00,VWS V14.00,2013-02-21 16:59:00,
2013-02-21 12:04:00,49.2,16.7,30.18,NNW,340,1.0,7.0,27,0.00,,---,0.00,728.00,VWS V14.00,2013-02-21 17:04:00,
2013-02-21 12:09:00,49.8,17.2,30.18,WNW,295,1.0,7.0,27,0.00,,---,0.00,733.00,VWS V14.00,2013-02-21 17:09:00,
2013-02-21 12:14:00,50.1,15.7,30.18,NNW,334,2.0,7.0,25,0.00,,---,0.00,737.00,VWS V14.00,2013-02-21 17:14:00,
2013-02-21 12:19:00,50.5,16.9,30.18,WNW,284,3.0,7.0,26,0.00,,---,0.00,738.00,VWS V14.00,2013-02-21 17:19:00,
2013-02-21 12:24:00,50.7,14.3,30.18,West,269,3.0,7.0,23,0.00,,---,0.00,738.00,VWS V14.00,2013-02-21 17:24:00,
2013-02-21 12:29:00,50.5,15.1,30.18,NW,309,3.0,7.0,24,0.00,,---,0.00,738.00,VWS V14.00,2013-02-21 17:29:00,
2013-02-21 12:34:00,51.0,14.5,30.18,WSW,246,3.0,4.0,23,0.00,,---,0.00,738.00,VWS V14.00,2013-02-21 17:34:00,
2013-02-21 12:39:00,50.4,16.8,30.18,SSE,147,2.0,4.0,26,0.00,,---,0.00,740.00,VWS V14.00,2013-02-21 17:39:00,
2013-02-21 12:44:00,50.7,14.3,30.17,NNW,336,0.0,8.0,23,0.00,,---,0.00,737.00,VWS V14.00,2013-02-21 17:44:00,
2013-02-21 12:49:00,52.2,15.5,30.16,South,178,3.0,8.0,23,0.00,,---,0.00,737.00,VWS V14.00,2013-02-21 17:49:00,
2013-02-21 12:54:00,52.0,15.4,30.16,West,279,1.0,8.0,23,0.00,,---,0.00,735.00,VWS V14.00,2013-02-21 17:54:00,
2013-02-21 12:59:00,51.9,18.1,30.15,NNW,328,0.0,8.0,26,0.00,,---,0.00,731.00,VWS V14.00,2013-02-21 17:59:00,
2013-02-21 13:04:00,52.2,17.5,30.15,NW,311,0.0,2.0,25,0.00,,---,0.00,726.00,VWS V14.00,2013-02-21 18:04:00,
2013-02-21 13:09:00,52.6,14.9,30.15,WSW,253,3.0,4.0,22,0.00,,---,0.00,726.00,VWS V14.00,2013-02-21 18:09:00,
2013-02-21 13:14:00,52.6,14.9,30.14,WSW,253,0.0,4.0,22,0.00,,---,0.00,721.00,VWS V14.00,2013-02-21 18:14:00,
2013-02-21 13:19:00,53.2,15.4,30.14,North,5,1.0,4.0,22,0.00,,---,0.00,715.00,VWS V14.00,2013-02-21 18:19:00,
2013-02-21 13:24:00,53.2,14.3,30.14,West,264,3.0,4.0,21,0.00,,---,0.00,712.00,VWS V14.00,2013-02-21 18:24:00,
2013-02-21 13:29:00,52.2,13.5,30.14,West,275,0.0,4.0,21,0.00,,---,0.00,705.00,VWS V14.00,2013-02-21 18:29:00,
2013-02-21 13:34:00,52.9,15.1,30.13,North,5,2.0,4.0,22,0.00,,---,0.00,698.00,VWS V14.00,2013-02-21 18:34:00,
2013-02-21 13:39:00,53.8,13.7,30.14,NNE,12,4.0,7.0,20,0.00,,---,0.00,694.00,VWS V14.00,2013-02-21 18:39:00,
2013-02-21 13:44:00,53.2,16.4,30.13,North,9,0.0,7.0,23,0.00,,---,0.00,687.00,VWS V14.00,2013-02-21 18:44:00,
2013-02-21 13:49:00,53.1,15.3,30.13,North,5,0.0,7.0,22,0.00,,---,0.00,679.00,VWS V14.00,2013-02-21 18:49:00,
2013-02-21 13:54:00,54.4,16.4,30.13,NNE,18,0.0,8.0,22,0.00,,---,0.00,673.00,VWS V14.00,2013-02-21 18:54:00,
2013-02-21 13:59:00,55.4,16.1,30.13,NNE,23,8.0,8.0,21,0.00,,---,0.00,666.00,VWS V14.00,2013-02-21 18:59:00,
2013-02-21 14:04:00,54.1,13.9,30.12,North,5,4.0,9.0,20,0.00,,---,0.00,657.00,VWS V14.00,2013-02-21 19:04:00,
2013-02-21 14:09:00,53.9,13.8,30.12,WSW,246,4.0,9.0,20,0.00,,---,0.00,649.00,VWS V14.00,2013-02-21 19:09:00,
2013-02-21 14:14:00,54.5,17.5,30.12,NW,318,0.0,9.0,23,0.00,,---,0.00,640.00,VWS V14.00,2013-02-21 19:14:00,
2013-02-21 14:19:00,54.7,13.3,30.12,NE,34,4.0,9.0,19,0.00,,---,0.00,633.00,VWS V14.00,2013-02-21 19:19:00,
2013-02-21 14:24:00,54.4,14.2,30.12,NW,309,0.0,9.0,20,0.00,,---,0.00,624.00,VWS V14.00,2013-02-21 19:24:00,
2013-02-21 14:29:00,55.0,13.5,30.11,NNW,333,0.0,9.0,19,0.00,,---,0.00,612.00,VWS V14.00,2013-02-21 19:29:00,
2013-02-21 14:34:00,55.6,12.8,30.11,North,355,2.0,5.0,18,0.00,,---,0.00,603.00,VWS V14.00,2013-02-21 19:34:00,
2013-02-21 14:39:00,55.0,11.0,30.11,NNW,327,0.0,5.0,17,0.00,,---,0.00,592.00,VWS V14.00,2013-02-21 19:39:00,
2013-02-21 14:44:00,55.4,13.9,30.11,NNW,336,0.0,5.0,19,0.00,,---,0.00,580.00,VWS V14.00,2013-02-21 19:44:00,
2013-02-21 14:49:00,55.7,14.1,30.11,West,279,0.0,5.0,19,0.00,,---,0.00,570.00,VWS V14.00,2013-02-21 19:49:00,
2013-02-21 14:54:00,54.7,13.3,30.10,SSW,207,2.0,5.0,19,0.00,,---,0.00,559.00,VWS V14.00,2013-02-21 19:54:00,
2013-02-21 14:59:00,55.0,14.7,30.10,WSW,254,1.0,5.0,20,0.00,,---,0.00,545.00,VWS V14.00,2013-02-21 19:59:00,
2013-02-21 15:04:00,55.4,13.9,30.10,WSW,254,0.0,3.0,19,0.00,,---,0.00,533.00,VWS V14.00,2013-02-21 20:04:00,
2013-02-21 15:09:00,54.5,11.9,30.10,SE,137,0.0,4.0,18,0.00,,---,0.00,519.00,VWS V14.00,2013-02-21 20:09:00,
2013-02-21 15:14:00,55.1,12.4,30.10,NNE,28,0.0,4.0,18,0.00,,---,0.00,508.00,VWS V14.00,2013-02-21 20:14:00,
2013-02-21 15:19:00,56.2,15.7,30.10,North,9,0.0,4.0,20,0.00,,---,0.00,494.00,VWS V14.00,2013-02-21 20:19:00,
2013-02-21 15:24:00,56.0,14.3,30.10,NE,36,4.0,5.0,19,0.00,,---,0.00,482.00,VWS V14.00,2013-02-21 20:24:00,
2013-02-21 15:29:00,55.4,17.2,30.10,West,277,0.0,5.0,22,0.00,,---,0.00,466.00,VWS V14.00,2013-02-21 20:29:00,
2013-02-21 15:34:00,56.0,14.3,30.10,NNW,334,0.0,5.0,19,0.00,,---,0.00,434.00,VWS V14.00,2013-02-21 20:34:00,
2013-02-21 15:39:00,55.7,14.1,30.10,NNE,26,3.0,5.0,19,0.00,,---,0.00,357.00,VWS V14.00,2013-02-21 20:39:00,
2013-02-21 15:44:00,56.0,14.3,30.10,NW,313,0.0,5.0,19,0.00,,---,0.00,302.00,VWS V14.00,2013-02-21 20:44:00,
2013-02-21 15:49:00,56.3,13.4,30.10,NW,326,2.0,5.0,18,0.00,,---,0.00,200.00,VWS V14.00,2013-02-21 20:49:00,
2013-02-21 15:54:00,55.9,14.3,30.11,NNE,25,4.0,5.0,19,0.00,,---,0.00,195.00,VWS V14.00,2013-02-21 20:54:00,
2013-02-21 15:59:00,55.7,15.3,30.11,West,279,0.0,5.0,20,0.00,,---,0.00,227.00,VWS V14.00,2013-02-21 20:59:00,
2013-02-21 16:04:00,55.6,14.0,30.11,NNW,347,0.0,2.0,19,0.00,,---,0.00,156.00,VWS V14.00,2013-02-21 21:04:00,
2013-02-21 16:09:00,55.4,13.9,30.11,North,5,0.0,4.0,19,0.00,,---,0.00,72.00,VWS V14.00,2013-02-21 21:09:00,
2013-02-21 16:14:00,55.0,13.5,30.11,NNW,347,0.0,4.0,19,0.00,,---,0.00,60.00,VWS V14.00,2013-02-21 21:14:00,
2013-02-21 16:19:00,55.0,13.5,30.11,North,355,0.0,4.0,19,0.00,,---,0.00,102.00,VWS V14.00,2013-02-21 21:19:00,
2013-02-21 16:24:00,55.0,14.7,30.11,SSE,163,0.0,4.0,20,0.00,,---,0.00,79.00,VWS V14.00,2013-02-21 21:24:00,
2013-02-21 16:29:00,55.3,14.9,30.11,North,350,2.0,4.0,20,0.00,,---,0.00,130.00,VWS V14.00,2013-02-21 21:29:00,
2013-02-21 16:34:00,55.1,15.9,30.11,NNW,331,0.0,5.0,21,0.00,,---,0.00,229.00,VWS V14.00,2013-02-21 21:34:00,
2013-02-21 16:39:00,55.1,14.8,30.11,WNW,301,0.0,5.0,20,0.00,,---,0.00,141.00,VWS V14.00,2013-02-21 21:39:00,
2013-02-21 16:44:00,54.8,14.5,30.11,NNE,22,2.0,5.0,20,0.00,,---,0.00,91.00,VWS V14.00,2013-02-21 21:44:00,
2013-02-21 16:49:00,54.7,13.3,30.11,NNE,22,0.0,5.0,19,0.00,,---,0.00,76.00,VWS V14.00,2013-02-21 21:49:00,
2013-02-21 16:54:00,54.5,15.4,30.12,NNE,24,0.0,5.0,21,0.00,,---,0.00,44.00,VWS V14.00,2013-02-21 21:54:00,
2013-02-21 16:59:00,54.5,15.4,30.12,NNE,24,0.0,5.0,21,0.00,,---,0.00,62.00,VWS V14.00,2013-02-21 21:59:00,
2013-02-21 17:04:00,54.4,16.4,30.13,NNE,24,0.0,1.0,22,0.00,,---,0.00,28.00,VWS V14.00,2013-02-21 22:04:00,
2013-02-21 17:09:00,54.4,15.3,30.13,NNE,24,0.0,2.0,21,0.00,,---,0.00,19.00,VWS V14.00,2013-02-21 22:09:00,
2013-02-21 17:14:00,54.2,16.2,30.13,NNE,24,0.0,3.0,22,0.00,,---,0.00,16.00,VWS V14.00,2013-02-21 22:14:00,
2013-02-21 17:19:00,54.1,17.1,30.13,NNE,24,0.0,3.0,23,0.00,,---,0.00,16.00,VWS V14.00,2013-02-21 22:19:00,
2013-02-21 17:24:00,53.9,18.0,30.13,NNE,24,0.0,3.0,24,0.00,,---,0.00,18.00,VWS V14.00,2013-02-21 22:24:00,
2013-02-21 17:29:00,53.8,17.9,30.13,NNE,24,0.0,3.0,24,0.00,,---,0.00,18.00,VWS V14.00,2013-02-21 22:29:00,
2013-02-21 17:34:00,53.5,17.6,30.14,NNE,24,0.0,0.0,24,0.00,,---,0.00,16.00,VWS V14.00,2013-02-21 22:34:00,
2013-02-21 17:39:00,53.2,18.3,30.14,NNE,24,0.0,0.0,25,0.00,,---,0.00,12.00,VWS V14.00,2013-02-21 22:39:00,
2013-02-21 17:44:00,52.9,18.0,30.14,NNE,24,0.0,0.0,25,0.00,,---,0.00,11.00,VWS V14.00,2013-02-21 22:44:00,
2013-02-21 17:49:00,52.6,18.7,30.13,NNE,24,0.0,0.0,26,0.00,,---,0.00,7.00,VWS V14.00,2013-02-21 22:49:00,
2013-02-21 17:54:00,52.0,19.1,30.13,NNE,24,0.0,0.0,27,0.00,,---,0.00,5.00,VWS V14.00,2013-02-21 22:54:00,
2013-02-21 17:59:00,51.6,17.9,30.13,NNE,24,0.0,2.0,26,0.00,,---,0.00,0.00,VWS V14.00,2013-02-21 22:59:00,
2013-02-21 18:04:00,51.0,16.4,30.13,North,360,2.0,4.0,25,0.00,,---,0.00,0.00,VWS V14.00,2013-02-21 23:04:00,
2013-02-21 18:09:00,50.7,18.0,30.14,North,350,0.0,4.0,27,0.00,,---,0.00,0.00,VWS V14.00,2013-02-21 23:09:00,
2013-02-21 18:14:00,50.4,17.7,30.14,North,350,0.0,4.0,27,0.00,,---,0.00,0.00,VWS V14.00,2013-02-21 23:14:00,
2013-02-21 18:19:00,50.2,18.4,30.13,North,350,0.0,4.0,28,0.00,,---,0.00,0.00,VWS V14.00,2013-02-21 23:19:00,
2013-02-21 18:24:00,50.1,17.4,30.13,North,350,0.0,4.0,27,0.00,,---,0.00,0.00,VWS V14.00,2013-02-21 23:24:00,
2013-02-21 18:29:00,49.9,17.3,30.14,North,350,0.0,4.0,27,0.00,,---,0.00,0.00,VWS V14.00,2013-02-21 23:29:00,
2013-02-21 18:34:00,49.6,17.0,30.15,North,350,0.0,0.0,27,0.00,,---,0.00,0.00,VWS V14.00,2013-02-21 23:34:00,
2013-02-21 18:39:00,49.5,17.8,30.15,North,350,0.0,0.0,28,0.00,,---,0.00,0.00,VWS V14.00,2013-02-21 23:39:00,
2013-02-21 18:44:00,49.4,17.7,30.15,North,350,0.0,0.0,28,0.00,,---,0.00,0.00,VWS V14.00,2013-02-21 23:44:00,
2013-02-21 18:49:00,49.2,16.7,30.16,North,350,0.0,0.0,27,0.00,,---,0.00,0.00,VWS V14.00,2013-02-21 23:49:00,
2013-02-21 18:54:00,49.1,17.4,30.16,North,350,0.0,0.0,28,0.00,,---,0.00,0.00,VWS V14.00,2013-02-21 23:54:00,
2013-02-21 18:59:00,48.9,17.2,30.16,North,350,0.0,0.0,28,0.00,,---,0.00,0.00,VWS V14.00,2013-02-21 23:59:00,
2013-02-21 19:04:00,48.8,17.2,30.17,North,350,0.0,0.0,28,0.00,,---,0.00,0.00,VWS V14.00,2013-02-22 00:04:00,
2013-02-21 19:09:00,48.6,17.0,30.18,North,350,0.0,0.0,28,0.00,,---,0.00,0.00,VWS V14.00,2013-02-22 00:09:00,
2013-02-21 19:14:00,48.5,16.9,30.19,North,350,0.0,0.0,28,0.00,,---,0.00,0.00,VWS V14.00,2013-02-22 00:14:00,
2013-02-21 19:19:00,48.3,16.7,30.18,North,350,0.0,0.0,28,0.00,,---,0.00,0.00,VWS V14.00,2013-02-22 00:19:00,
2013-02-21 19:24:00,48.2,16.6,30.19,North,350,0.0,0.0,28,0.00,,---,0.00,0.00,VWS V14.00,2013-02-22 00:24:00,
2013-02-21 19:29:00,48.0,15.6,30.19,North,350,0.0,0.0,27,0.00,,---,0.00,0.00,VWS V14.00,2013-02-22 00:29:00,
2013-02-21 19:34:00,47.9,16.4,30.19,North,350,0.0,0.0,28,0.00,,---,0.00,0.00,VWS V14.00,2013-02-22 00:34:00,
2013-02-21 19:39:00,47.7,16.2,30.20,North,350,0.0,0.0,28,0.00,,---,0.00,0.00,VWS V14.00,2013-02-22 00:39:00,
2013-02-21 19:44:00,47.6,16.1,30.20,North,350,0.0,0.0,28,0.00,,---,0.00,0.00,VWS V14.00,2013-02-22 00:44:00,
2013-02-21 19:49:00,47.4,17.5,30.20,North,350,0.0,0.0,30,0.00,,---,0.00,0.00,VWS V14.00,2013-02-22 00:49:00,
2013-02-21 19:54:00,47.3,19.7,30.20,North,350,0.0,0.0,33,0.00,,---,0.00,0.00,VWS V14.00,2013-02-22 00:54:00,
2013-02-21 19:59:00,47.1,19.5,30.20,North,350,0.0,0.0,33,0.00,,---,0.00,0.00,VWS V14.00,2013-02-22 00:59:00,
2013-02-21 20:04:00,47.1,18.8,30.20,North,350,0.0,0.0,32,0.00,,---,0.00,0.00,VWS V14.00,2013-02-22 01:04:00,
2013-02-21 20:09:00,47.0,21.5,30.20,North,350,0.0,1.0,36,0.00,,---,0.00,0.00,VWS V14.00,2013-02-22 01:09:00,
2013-02-21 20:14:00,46.8,21.9,30.20,North,350,0.0,1.0,37,0.00,,---,0.00,0.00,VWS V14.00,2013-02-22 01:14:00,
2013-02-21 20:19:00,46.5,21.0,30.20,North,350,0.0,1.0,36,0.00,,---,0.00,0.00,VWS V14.00,2013-02-22 01:19:00,
2013-02-21 20:24:00,46.4,22.2,30.20,North,350,0.0,1.0,38,0.00,,---,0.00,0.00,VWS V14.00,2013-02-22 01:24:00,
2013-02-21 20:29:00,46.2,22.0,30.20,North,350,0.0,1.0,38,0.00,,---,0.00,0.00,VWS V14.00,2013-02-22 01:29:00,
2013-02-21 20:34:00,46.1,20.6,30.20,NNE,32,0.0,2.0,36,0.00,,---,0.00,0.00,VWS V14.00,2013-02-22 01:34:00,
2013-02-21 20:39:00,45.8,21.0,30.20,NNE,32,0.0,2.0,37,0.00,,---,0.00,0.00,VWS V14.00,2013-02-22 01:39:00,
2013-02-21 20:44:00,45.8,21.0,30.19,NNE,32,0.0,2.0,37,0.00,,---,0.00,0.00,VWS V14.00,2013-02-22 01:44:00,
2013-02-21 20:49:00,45.7,21.6,30.19,NNE,32,0.0,2.0,38,0.00,,---,0.00,0.00,VWS V14.00,2013-02-22 01:49:00,
2013-02-21 20:54:00,45.7,21.6,30.19,NNE,32,0.0,2.0,38,0.00,,---,0.00,0.00,VWS V14.00,2013-02-22 01:54:00,
2013-02-21 20:59:00,45.5,20.8,30.19,NNE,32,0.0,2.0,37,0.00,,---,0.00,0.00,VWS V14.00,2013-02-22 01:59:00,
2013-02-21 21:04:00,45.4,19.4,30.19,NNE,32,0.0,3.0,35,0.00,,---,0.00,0.00,VWS V14.00,2013-02-22 02:04:00,
2013-02-21 21:09:00,45.4,19.4,30.19,NE,34,0.0,3.0,35,0.00,,---,0.00,0.00,VWS V14.00,2013-02-22 02:09:00,
2013-02-21 21:14:00,45.5,19.5,30.19,NE,34,2.0,3.0,35,0.00,,---,0.00,0.00,VWS V14.00,2013-02-22 02:14:00,
2013-02-21 21:19:00,45.5,18.8,30.19,NE,43,0.0,3.0,34,0.00,,---,0.00,0.00,VWS V14.00,2013-02-22 02:19:00,
2013-02-21 21:24:00,45.5,18.8,30.19,ENE,65,0.0,4.0,34,0.00,,---,0.00,0.00,VWS V14.00,2013-02-22 02:24:00,
2013-02-21 21:29:00,45.7,19.0,30.20,NNE,33,0.0,4.0,34,0.00,,---,0.00,0.00,VWS V14.00,2013-02-22 02:29:00,
2013-02-21 21:34:00,45.7,19.6,30.20,NNE,30,0.0,4.0,35,0.00,,---,0.00,0.00,VWS V14.00,2013-02-22 02:34:00,
2013-02-21 21:39:00,45.7,19.6,30.21,NNE,30,0.0,4.0,35,0.00,,---,0.00,0.00,VWS V14.00,2013-02-22 02:39:00,
2013-02-21 21:44:00,45.7,20.9,30.21,NNE,30,0.0,4.0,37,0.00,,---,0.00,0.00,VWS V14.00,2013-02-22 02:44:00,
2013-02-21 21:49:00,45.7,20.9,30.21,NNE,30,0.0,4.0,37,0.00,,---,0.00,0.00,VWS V14.00,2013-02-22 02:49:00,
2013-02-21 21:54:00,45.7,20.3,30.21,NNE,30,0.0,4.0,36,0.00,,---,0.00,0.00,VWS V14.00,2013-02-22 02:54:00,
2013-02-21 21:59:00,45.5,20.1,30.21,NNE,30,0.0,4.0,36,0.00,,---,0.00,0.00,VWS V14.00,2013-02-22 02:59:00,
2013-02-21 22:04:00,45.4,20.0,30.22,NNE,30,0.0,2.0,36,0.00,,---,0.00,0.00,VWS V14.00,2013-02-22 03:04:00,
2013-02-21 22:09:00,45.4,20.0,30.23,NNE,30,0.0,2.0,36,0.00,,---,0.00,0.00,VWS V14.00,2013-02-22 03:09:00,
2013-02-21 22:14:00,45.2,19.9,30.23,NNE,30,0.0,2.0,36,0.00,,---,0.00,0.00,VWS V14.00,2013-02-22 03:14:00,
2013-02-21 22:19:00,45.1,20.4,30.24,NNE,30,0.0,2.0,37,0.00,,---,0.00,0.00,VWS V14.00,2013-02-22 03:19:00,
2013-02-21 22:24:00,45.1,20.4,30.25,NNE,30,0.0,2.0,37,0.00,,---,0.00,0.00,VWS V14.00,2013-02-22 03:24:00,
2013-02-21 22:29:00,44.9,20.2,30.25,NNE,30,0.0,2.0,37,0.00,,---,0.00,0.00,VWS V14.00,2013-02-22 03:29:00,
2013-02-21 22:34:00,44.9,20.9,30.25,NNE,30,0.0,0.0,38,0.00,,---,0.00,0.00,VWS V14.00,2013-02-22 03:34:00,
2013-02-21 22:39:00,44.8,20.8,30.25,NNE,30,0.0,0.0,38,0.00,,---,0.00,0.00,VWS V14.00,2013-02-22 03:39:00,
2013-02-21 22:44:00,44.6,21.8,30.25,NNE,30,0.0,1.0,40,0.00,,---,0.00,0.00,VWS V14.00,2013-02-22 03:44:00,
2013-02-21 22:49:00,44.5,21.7,30.25,NNE,30,0.0,1.0,40,0.00,,---,0.00,0.00,VWS V14.00,2013-02-22 03:49:00,
2013-02-21 22:54:00,44.3,20.3,30.24,NNE,30,0.0,3.0,38,0.00,,---,0.00,0.00,VWS V14.00,2013-02-22 03:54:00,
2013-02-21 22:59:00,44.2,21.4,30.23,NNE,30,0.0,3.0,40,0.00,,---,0.00,0.00,VWS V14.00,2013-02-22 03:59:00,
2013-02-21 23:04:00,44.1,22.5,30.23,NNE,30,0.0,0.0,42,0.00,,---,0.00,0.00,VWS V14.00,2013-02-22 04:04:00,
2013-02-21 23:09:00,43.9,21.7,30.22,NNE,30,0.0,1.0,41,0.00,,---,0.00,0.00,VWS V14.00,2013-02-22 04:09:00,
2013-02-21 23:14:00,43.9,20.6,30.22,NNE,30,0.0,1.0,39,0.00,,---,0.00,0.00,VWS V14.00,2013-02-22 04:14:00,
2013-02-21 23:19:00,43.9,21.2,30.23,NE,42,0.0,2.0,40,0.00,,---,0.00,0.00,VWS V14.00,2013-02-22 04:19:00,
2013-02-21 23:24:00,43.9,20.6,30.23,NE,42,0.0,3.0,39,0.00,,---,0.00,0.00,VWS V14.00,2013-02-22 04:24:00,
2013-02-21 23:29:00,43.9,21.7,30.22,NE,42,0.0,3.0,41,0.00,,---,0.00,0.00,VWS V14.00,2013-02-22 04:29:00,
2013-02-21 23:34:00,43.9,21.2,30.22,NW,309,0.0,2.0,40,0.00,,---,0.00,0.00,VWS V14.00,2013-02-22 04:34:00,
2013-02-21 23:39:00,43.9,21.2,30.22,WNW,298,0.0,2.0,40,0.00,,---,0.00,0.00,VWS V14.00,2013-02-22 04:39:00,
2013-02-21 23:44:00,44.1,21.3,30.24,East,80,0.0,7.0,40,0.00,,---,0.00,0.00,VWS V14.00,2013-02-22 04:44:00,
2013-02-21 23:49:00,44.1,21.3,30.25,East,87,0.0,7.0,40,0.00,,---,0.00,0.00,VWS V14.00,2013-02-22 04:49:00,
2013-02-21 23:54:00,44.1,20.7,30.25,SE,146,0.0,7.0,39,0.00,,---,0.00,0.00,VWS V14.00,2013-02-22 04:54:00,
2013-02-21 23:59:00,44.1,21.3,30.25,South,184,0.0,7.0,40,0.00,,---,0.00,0.00,VWS V14.00,2013-02-22 04:59:00,